TAF KGCC
KGCC 072320Z 0800/0824 20010KT P6SM BKN070 FM081600 21015G25KT P6SM BKN200=
METAR KGCC
WC KGCC
WS KGCC
WV KGCC